Time;durP1;ratioP1;P1;durP2;ratioP2;P2;SDS_P1;SDS_P2;PMS_P1;PMS_P2;Temp;Humidity;BMP_temperature;BMP_pressure;BME280_temperature;BME280_humidity;BME280_pressure;Samples;Min_cycle;Max_cycle;Signal;HPM_P1;HPM_P2
2022/03/17 00:00:37;;;;;;;13.47;12.23;;;;;;;7.36;64.07;95534.53;4923690;29;20279;-60
2022/03/17 00:03:03;;;;;;;14.60;13.17;;;;;;;7.44;63.46;95532.16;4915965;29;20232;-60
2022/03/17 00:05:29;;;;;;;14.40;12.93;;;;;;;7.47;63.26;95531.09;4914075;29;20225;-60
2022/03/17 00:07:54;;;;;;;13.73;12.40;;;;;;;7.49;63.71;95539.66;4914998;28;20221;-59
2022/03/17 00:10:20;;;;;;;14.37;12.87;;;;;;;7.45;63.40;95532.97;4916594;29;20224;-59
2022/03/17 00:12:47;;;;;;;14.50;13.00;;;;;;;7.51;63.56;95538.59;4935176;28;20285;-59
2022/03/17 00:15:13;;;;;;;15.23;13.73;;;;;;;7.47;63.78;95531.09;4938693;28;20238;-59
2022/03/17 00:17:41;;;;;;;14.27;12.77;;;;;;;7.52;63.10;95531.56;4934273;28;20224;-61
2022/03/17 00:20:10;;;;;;;13.30;12.10;;;;;;;7.63;62.90;95534.16;4950560;28;20212;-60
2022/03/17 00:22:36;;;;;;;15.00;13.60;;;;;;;7.72;62.86;95527.34;4932275;28;20231;-60
2022/03/17 00:25:04;;;;;;;15.00;13.47;;;;;;;7.59;63.45;95526.66;4923309;28;20273;-60
2022/03/17 00:27:31;;;;;;;15.30;13.80;;;;;;;7.44;64.07;95531.34;4931721;29;20248;-60
2022/03/17 00:29:56;;;;;;;16.00;14.40;;;;;;;7.47;64.23;95531.09;4953906;28;20244;-60
2022/03/17 00:32:23;;;;;;;17.03;15.37;;;;;;;7.57;64.72;95531.22;4936709;29;20240;-61
2022/03/17 00:37:33;;;;;;;17.20;14.87;;;;;;;7.53;64.21;95535.81;4945350;28;20259;-60
2022/03/17 00:39:58;;;;;;;17.03;15.23;;;;;;;7.46;65.13;95530.25;4947746;28;20225;-60
2022/03/17 00:42:24;;;;;;;16.33;14.63;;;;;;;7.52;64.47;95536.78;4932237;29;20220;-59
2022/03/17 00:44:50;;;;;;;15.77;13.30;;;;;;;7.57;64.11;95544.28;4947241;28;20216;-59
2022/03/17 00:47:16;;;;;;;16.70;14.63;;;;;;;7.50;64.41;95546.53;4935528;29;20225;-60
2022/03/17 00:49:41;;;;;;;16.30;14.73;;;;;;;7.49;64.72;95543.09;4944696;29;20220;-60
2022/03/17 00:52:10;;;;;;;16.37;14.77;;;;;;;7.51;64.73;95543.81;4966186;28;20237;-60
2022/03/17 00:54:39;;;;;;;17.47;15.67;;;;;;;7.53;65.02;95550.69;4930432;28;20256;-60
2022/03/17 00:57:06;;;;;;;17.70;15.80;;;;;;;7.55;64.90;95548.81;4914810;29;20224;-59
2022/03/17 00:59:32;;;;;;;17.00;15.20;;;;;;;7.56;65.15;95564.38;4916677;29;20244;-60
2022/03/17 01:01:58;;;;;;;17.80;15.90;;;;;;;7.55;65.07;95559.28;4934743;28;20209;-60
2022/03/17 01:04:24;;;;;;;18.50;16.53;;;;;;;7.47;65.58;95573.78;4941334;29;20215;-60
2022/03/17 01:06:49;;;;;;;19.53;17.43;;;;;;;7.48;64.92;95570.22;4937002;29;20232;-60
2022/03/17 01:09:14;;;;;;;20.60;18.50;;;;;;;7.17;66.16;95563.91;4932637;28;20244;-60
2022/03/17 01:11:40;;;;;;;20.03;17.80;;;;;;;6.98;66.00;95564.47;4929732;29;20224;-60
2022/03/17 01:14:06;;;;;;;21.80;18.10;;;;;;;6.94;66.52;95565.63;4929910;28;20215;-60
2022/03/17 01:16:32;;;;;;;17.40;15.60;;;;;;;6.65;67.15;95574.84;4929609;29;20224;-60
2022/03/17 01:18:57;;;;;;;17.57;15.87;;;;;;;6.67;66.54;95565.13;4930158;29;20216;-60
2022/03/17 01:21:23;;;;;;;17.43;15.63;;;;;;;6.69;66.97;95571.06;4938039;28;20236;-61
2022/03/17 01:23:48;;;;;;;17.33;15.63;;;;;;;6.70;67.20;95564.88;4936933;29;20221;-60
2022/03/17 01:26:14;;;;;;;16.93;15.17;;;;;;;6.62;67.52;95575.91;4933198;28;20236;-60
2022/03/17 01:28:41;;;;;;;17.17;15.33;;;;;;;6.66;67.84;95569.50;4913769;29;20210;-60
2022/03/17 01:31:08;;;;;;;17.23;15.53;;;;;;;6.74;65.90;95580.22;4919277;28;20243;-60
2022/03/17 01:33:34;;;;;;;16.23;14.63;;;;;;;6.72;66.52;95576.88;4916603;29;20249;-60
2022/03/17 01:35:59;;;;;;;16.63;15.03;;;;;;;6.76;66.83;95586.19;4914547;29;20233;-59
2022/03/17 01:38:25;;;;;;;15.83;14.33;;;;;;;6.74;67.07;95582.84;4915974;29;20230;-59
2022/03/17 01:40:50;;;;;;;15.80;14.20;;;;;;;6.63;67.53;95581.03;4915975;28;20221;-59
2022/03/17 01:43:16;;;;;;;16.37;14.03;;;;;;;6.67;68.18;95584.22;4913073;29;20277;-60
2022/03/17 01:45:41;;;;;;;15.73;14.03;;;;;;;6.68;67.89;95591.13;4922575;29;20243;-60
2022/03/17 01:48:07;;;;;;;16.40;13.90;;;;;;;6.60;68.39;95593.47;4915347;29;20303;-60
2022/03/17 01:50:32;;;;;;;15.40;13.57;;;;;;;6.62;68.76;95594.19;4911605;29;20240;-59
2022/03/17 01:52:57;;;;;;;15.70;13.53;;;;;;;6.54;68.85;95599.97;4912087;28;20214;-59
2022/03/17 01:55:23;;;;;;;15.17;13.67;;;;;;;6.55;68.99;95596.44;4912575;29;20269;-60
2022/03/17 01:57:49;;;;;;;16.33;14.73;;;;;;;6.62;68.84;95599.41;4915829;29;20221;-60
2022/03/17 02:00:18;;;;;;;16.13;14.43;;;;;;;6.62;69.08;95600.25;4913137;29;20241;-59
2022/03/17 02:02:45;;;;;;;14.90;13.50;;;;;;;6.74;68.69;95610.75;4912725;29;20217;-59
2022/03/17 02:05:12;;;;;;;14.63;12.93;;;;;;;6.68;68.32;95600.75;4911322;28;20229;-59
2022/03/17 02:07:38;;;;;;;14.13;12.50;;;;;;;6.69;68.51;95599.81;4909580;29;20209;-60
2022/03/17 02:10:04;;;;;;;13.00;11.70;;;;;;;6.68;68.23;95600.75;4922586;29;20226;-60
2022/03/17 02:15:14;;;;;;;14.20;12.83;;;;;;;6.59;67.97;95607.47;4923463;29;20232;-60
2022/03/17 02:17:40;;;;;;;14.07;12.77;;;;;;;6.45;69.06;95607.69;4914415;29;20229;-60
2022/03/17 02:20:11;;;;;;;15.20;13.60;;;;;;;6.49;69.03;95607.31;4912903;29;20213;-60
2022/03/17 02:22:48;;;;;;;15.53;13.00;;;;;;;6.38;68.74;95608.09;4912731;29;20205;-60
2022/03/17 02:28:16;;;;;;;10.93;9.67;;;;;;;6.45;67.56;95605.88;4842298;29;20308;-61
2022/03/17 02:30:42;;;;;;;7.93;7.23;;;;;;;6.46;67.59;95612.75;4839266;29;20248;-59
2022/03/17 02:33:10;;;;;;;6.47;5.40;;;;;;;6.41;66.66;95622.72;4839956;29;20247;-60
2022/03/17 02:35:37;;;;;;;6.30;5.70;;;;;;;6.29;66.29;95618.41;4844648;29;20251;-60
2022/03/17 02:38:04;;;;;;;5.17;4.67;;;;;;;6.28;66.98;95621.94;4833451;29;20335;-59
2022/03/17 02:40:31;;;;;;;4.87;4.47;;;;;;;6.33;66.35;95627.66;4846347;29;20244;-59
2022/03/17 02:42:57;;;;;;;6.13;5.53;;;;;;;6.23;67.33;95617.06;4843072;29;20236;-59
2022/03/17 02:45:23;;;;;;;5.50;4.97;;;;;;;6.23;67.87;95617.06;4820199;29;20332;-59
2022/03/17 02:47:49;;;;;;;4.90;4.40;;;;;;;6.30;66.58;95623.50;4852525;29;20315;-59
2022/03/17 02:50:15;;;;;;;4.93;4.43;;;;;;;6.30;66.42;95633.13;4841028;29;20319;-59
2022/03/17 02:52:41;;;;;;;4.43;4.03;;;;;;;6.27;66.33;95631.56;4839661;29;20227;-60
2022/03/17 02:55:09;;;;;;;3.90;3.60;;;;;;;6.27;65.96;95628.13;4843895;29;20263;-59
2022/03/17 02:57:36;;;;;;;3.87;3.57;;;;;;;6.34;66.14;95643.25;4842854;29;20236;-59
2022/03/17 03:00:04;;;;;;;3.80;3.50;;;;;;;6.33;66.11;95632.88;4833233;29;20284;-59
2022/03/17 03:02:30;;;;;;;3.60;3.30;;;;;;;6.21;66.43;95629.41;4831587;29;20239;-60
2022/03/17 03:04:55;;;;;;;4.50;3.40;;;;;;;6.20;66.63;95640.75;4908037;29;20289;-59
2022/03/17 03:07:21;;;;;;;4.17;3.77;;;;;;;6.29;65.91;95645.34;4912173;29;20205;-60
2022/03/17 03:09:47;;;;;;;5.33;4.83;;;;;;;6.31;64.70;95647.84;4915905;29;20239;-60
2022/03/17 03:12:12;;;;;;;5.60;5.10;;;;;;;6.30;63.70;95644.38;4906368;29;20230;-60
2022/03/17 03:14:38;;;;;;;5.60;5.20;;;;;;;6.29;64.88;95649.75;4891927;29;20234;-59
2022/03/17 03:17:03;;;;;;;5.80;5.30;;;;;;;6.15;66.04;95654.16;4893179;29;20222;-59
2022/03/17 03:19:29;;;;;;;6.07;5.47;;;;;;;6.27;66.00;95644.63;4909905;29;20308;-60
2022/03/17 03:21:55;;;;;;;6.10;5.60;;;;;;;6.33;64.78;95645.94;4910636;29;20235;-59
2022/03/17 03:24:20;;;;;;;6.70;6.10;;;;;;;6.37;64.05;95652.63;4913013;29;20293;-60
2022/03/17 03:26:46;;;;;;;6.77;6.17;;;;;;;6.40;63.91;95655.84;4924228;28;20357;-60
2022/03/17 03:29:22;;;;;;;6.27;5.77;;;;;;;6.40;63.76;95666.28;4958158;28;20256;-59
2022/03/17 03:32:06;;;;;;;6.43;5.90;;;;;;;6.38;63.27;95664.75;4909269;29;20232;-59
2022/03/17 03:34:33;;;;;;;6.70;6.10;;;;;;;6.30;63.53;95665.28;4908786;29;20221;-60
2022/03/17 03:39:43;;;;;;;8.23;7.43;;;;;;;6.25;63.35;95659.56;4952980;28;20298;-60
2022/03/17 03:42:09;;;;;;;8.77;7.87;;;;;;;6.23;63.24;95658.84;4940024;28;20315;-59
2022/03/17 03:44:36;;;;;;;8.83;8.03;;;;;;;6.18;63.28;95663.56;4936808;29;20220;-59
2022/03/17 03:47:03;;;;;;;8.13;7.43;;;;;;;6.25;62.63;95670.00;4937160;28;20212;-60
2022/03/17 03:49:29;;;;;;;8.73;7.93;;;;;;;6.14;63.57;95672.53;4933926;29;20217;-60
2022/03/17 03:51:54;;;;;;;9.20;8.30;;;;;;;6.05;62.74;95668.81;4938097;28;20328;-60
2022/03/17 03:54:20;;;;;;;9.93;9.03;;;;;;;6.02;63.42;95665.59;4932767;29;20240;-59
2022/03/17 03:56:48;;;;;;;10.53;9.43;;;;;;;5.95;63.76;95670.41;4934616;28;20232;-59
2022/03/17 04:01:43;;;;;;;10.67;9.57;;;;;;;6.05;63.33;95686.25;4952814;28;20207;-59
2022/03/17 04:04:09;;;;;;;10.70;9.70;;;;;;;5.96;63.99;95685.97;4928159;28;20228;-60
2022/03/17 04:06:46;;;;;;;11.23;10.07;;;;;;;5.83;64.01;95698.16;4965603;28;20220;-60
2022/03/17 04:09:20;;;;;;;12.40;11.10;;;;;;;5.88;64.07;95695.22;4932656;28;20267;-59
2022/03/17 04:11:46;;;;;;;12.00;10.90;;;;;;;5.77;63.91;95692.53;4933737;28;20225;-60
2022/03/17 04:14:13;;;;;;;11.23;10.13;;;;;;;5.62;64.02;95694.44;4934217;29;20229;-59
2022/03/17 04:16:39;;;;;;;11.63;10.63;;;;;;;5.75;63.81;95703.91;4967511;28;20228;-59
2022/03/17 04:19:04;;;;;;;12.27;10.97;;;;;;;5.64;64.42;95714.25;4938307;29;20269;-60
2022/03/17 04:21:30;;;;;;;11.93;10.83;;;;;;;5.67;64.51;95713.22;4933302;28;20224;-63
2022/03/17 04:23:57;;;;;;;11.70;10.60;;;;;;;5.80;64.81;95723.63;4935855;29;20236;-60
2022/03/17 04:26:23;;;;;;;11.50;10.40;;;;;;;5.71;64.91;95720.69;4935271;29;20236;-60
2022/03/17 04:28:48;;;;;;;11.93;10.77;;;;;;;5.65;64.60;95728.13;4937403;29;20227;-60
2022/03/17 04:31:14;;;;;;;11.57;10.50;;;;;;;5.79;64.40;95742.84;4931763;29;20229;-59
2022/03/17 04:33:39;;;;;;;11.43;10.27;;;;;;;5.63;64.45;95733.44;4932239;29;20240;-60
2022/03/17 04:36:06;;;;;;;11.43;10.33;;;;;;;5.69;64.55;95740.88;4934181;28;20240;-60
2022/03/17 04:38:32;;;;;;;11.40;10.20;;;;;;;5.64;64.14;95729.91;4946732;28;20232;-60
2022/03/17 04:40:58;;;;;;;11.53;10.50;;;;;;;5.57;64.26;95738.25;4942291;28;20235;-59
2022/03/17 04:43:23;;;;;;;10.83;9.83;;;;;;;5.61;63.90;95737.91;4932761;29;20213;-60
2022/03/17 04:45:49;;;;;;;10.50;9.50;;;;;;;5.61;63.63;95745.75;4934277;29;20235;-60
2022/03/17 04:48:15;;;;;;;10.10;9.20;;;;;;;5.26;65.51;95741.13;4934876;29;20330;-59
2022/03/17 04:50:41;;;;;;;9.50;8.63;;;;;;;5.57;64.53;95752.13;4916430;29;20235;-60
2022/03/17 04:55:52;;;;;;;10.03;9.03;;;;;;;5.48;64.36;95750.97;4947435;28;20298;-59
2022/03/17 04:58:19;;;;;;;9.83;8.93;;;;;;;5.52;64.02;95759.41;4933580;29;20227;-60
2022/03/17 05:00:44;;;;;;;9.70;8.80;;;;;;;5.44;64.38;95766.91;4936594;28;20229;-60
2022/03/17 05:03:10;;;;;;;10.20;9.20;;;;;;;5.45;64.74;95776.41;4935479;28;20239;-60
2022/03/17 05:05:36;;;;;;;11.30;10.20;;;;;;;5.45;64.23;95766.84;4939833;29;20229;-60
2022/03/17 05:08:02;;;;;;;10.17;9.27;;;;;;;5.40;64.71;95768.03;4935998;28;20289;-59
2022/03/17 05:10:30;;;;;;;10.67;9.53;;;;;;;5.13;64.10;95771.53;4937968;29;20223;-62
2022/03/17 05:12:56;;;;;;;9.67;8.77;;;;;;;5.15;64.40;95780.09;4934346;28;20422;-60
2022/03/17 05:15:23;;;;;;;10.47;9.47;;;;;;;5.24;65.56;95781.28;4931856;29;20233;-60
2022/03/17 05:17:48;;;;;;;9.07;8.27;;;;;;;5.29;65.33;95782.66;4929335;29;20221;-60
2022/03/17 05:20:14;;;;;;;9.17;8.20;;;;;;;5.23;64.78;95780.44;4929300;29;20231;-59
2022/03/17 05:22:41;;;;;;;9.37;8.47;;;;;;;5.34;65.09;95787.56;4939037;28;20228;-60
2022/03/17 05:25:08;;;;;;;9.63;8.73;;;;;;;5.31;65.00;95795.56;4932821;29;20237;-59
2022/03/17 05:27:40;;;;;;;9.17;8.27;;;;;;;5.21;65.18;95803.19;4949171;28;20328;-60
2022/03/17 05:30:11;;;;;;;8.60;7.80;;;;;;;5.28;64.94;95798.38;4931583;29;20237;-60
2022/03/17 05:32:37;;;;;;;7.73;7.03;;;;;;;5.22;65.28;95802.25;4932065;29;20225;-59
2022/03/17 05:35:02;;;;;;;8.23;7.43;;;;;;;5.36;64.66;95808.31;4963514;28;20205;-59
2022/03/17 05:37:28;;;;;;;8.73;7.83;;;;;;;5.35;64.09;95799.66;4931196;28;20217;-60
2022/03/17 05:39:54;;;;;;;8.70;7.80;;;;;;;5.25;65.02;95807.25;4927935;29;20233;-60
2022/03/17 05:42:19;;;;;;;7.90;7.10;;;;;;;5.27;65.07;95808.00;4939682;28;20256;-60
2022/03/17 05:44:44;;;;;;;8.23;7.43;;;;;;;5.23;65.09;95803.06;4929403;29;20222;-60
2022/03/17 05:47:10;;;;;;;7.80;6.93;;;;;;;5.28;63.83;95825.28;4913581;28;20223;-60
2022/03/17 05:49:36;;;;;;;8.03;7.23;;;;;;;5.21;64.29;95825.78;4931375;29;20221;-61
2022/03/17 05:52:02;;;;;;;7.93;7.23;;;;;;;5.19;64.54;95838.13;4958014;28;20225;-60
2022/03/17 05:54:28;;;;;;;8.17;7.37;;;;;;;5.17;64.48;95843.41;4926053;29;20235;-61
2022/03/17 05:56:53;;;;;;;6.70;6.10;;;;;;;5.08;64.83;95851.84;4928406;28;20225;-60
2022/03/17 05:59:19;;;;;;;6.60;6.00;;;;;;;5.11;65.58;95851.63;4943912;28;20231;-59
2022/03/17 06:01:44;;;;;;;6.67;6.07;;;;;;;5.06;65.93;95854.53;4934834;28;20323;-60
2022/03/17 06:04:10;;;;;;;6.27;5.37;;;;;;;5.13;65.84;95854.13;4932359;28;20228;-61
2022/03/17 06:06:35;;;;;;;5.60;5.10;;;;;;;5.16;65.38;95851.31;4947439;28;20233;-60
2022/03/17 06:09:01;;;;;;;7.00;5.97;;;;;;;5.02;64.98;95860.84;4912857;29;20261;-61
2022/03/17 06:11:28;;;;;;;6.13;5.53;;;;;;;4.80;66.11;95850.94;4914740;29;20240;-61
2022/03/17 06:13:54;;;;;;;6.20;5.60;;;;;;;4.96;66.17;95850.81;4931797;28;20212;-60
2022/03/17 06:16:20;;;;;;;6.00;5.50;;;;;;;4.96;66.43;95857.81;4928322;29;20220;-60
2022/03/17 06:18:47;;;;;;;5.87;5.37;;;;;;;5.07;66.50;95852.75;4930135;29;20276;-60
2022/03/17 06:21:13;;;;;;;7.30;5.43;;;;;;;5.21;65.29;95863.16;4930172;29;20232;-60
2022/03/17 06:23:38;;;;;;;5.33;4.83;;;;;;;5.14;65.00;95861.88;4921494;28;20236;-60
2022/03/17 06:26:04;;;;;;;5.67;5.17;;;;;;;5.10;65.95;95868.19;4945043;28;20252;-60
2022/03/17 06:28:29;;;;;;;5.57;5.07;;;;;;;5.16;66.30;95865.22;4937115;28;20235;-59
2022/03/17 06:30:55;;;;;;;5.50;5.00;;;;;;;5.11;65.92;95869.88;4911940;29;20277;-61
2022/03/17 06:33:20;;;;;;;5.77;5.17;;;;;;;5.12;65.26;95873.31;4921251;29;20276;-61
2022/03/17 06:35:46;;;;;;;5.80;5.30;;;;;;;5.11;65.94;95872.50;4949793;28;20412;-60
2022/03/17 06:38:12;;;;;;;6.37;5.77;;;;;;;4.90;65.44;95873.84;4934418;29;20252;-60
2022/03/17 06:40:37;;;;;;;6.00;5.40;;;;;;;4.83;65.18;95876.81;4933946;28;20208;-60
2022/03/17 06:43:04;;;;;;;6.57;5.90;;;;;;;5.06;66.53;95885.81;4944250;28;20247;-60
2022/03/17 06:45:30;;;;;;;6.10;5.60;;;;;;;4.81;66.59;95881.31;4928405;28;20265;-60
2022/03/17 06:47:55;;;;;;;6.30;5.70;;;;;;;4.80;66.04;95887.44;4927478;29;20331;-61
2022/03/17 06:50:22;;;;;;;5.13;4.63;;;;;;;4.63;65.91;95890.25;4926083;29;20259;-60
2022/03/17 06:52:50;;;;;;;9.83;5.80;;;;;;;4.75;66.15;95886.88;4916709;29;20228;-59
2022/03/17 06:55:16;;;;;;;6.37;5.77;;;;;;;4.78;67.51;95891.91;4914257;29;20238;-60
2022/03/17 06:57:42;;;;;;;6.00;5.50;;;;;;;4.92;67.77;95898.00;4941826;28;20236;-61
2022/03/17 07:00:13;;;;;;;6.60;5.90;;;;;;;4.94;68.07;95897.00;4933228;28;20235;-61
2022/03/17 07:02:39;;;;;;;6.93;5.53;;;;;;;4.59;67.62;95901.78;4944739;28;20231;-61
2022/03/17 07:05:06;;;;;;;6.60;5.90;;;;;;;4.90;67.40;95908.56;4919158;28;20216;-63
2022/03/17 07:07:32;;;;;;;6.40;5.43;;;;;;;4.63;67.46;95903.28;4931015;28;20209;-62
2022/03/17 07:09:57;;;;;;;6.37;5.77;;;;;;;4.80;67.45;95917.88;4933022;28;20241;-61
2022/03/17 07:12:23;;;;;;;6.07;5.47;;;;;;;4.68;67.79;95916.00;4945083;28;20228;-59
2022/03/17 07:14:48;;;;;;;6.60;6.00;;;;;;;4.74;69.07;95919.09;4928760;28;20307;-62
2022/03/17 07:17:19;;;;;;;7.63;6.57;;;;;;;4.85;68.95;95927.06;4928641;28;20237;-61
2022/03/17 07:19:45;;;;;;;7.90;7.17;;;;;;;4.66;68.12;95921.31;4928358;28;20240;-60
2022/03/17 07:22:11;;;;;;;8.67;7.83;;;;;;;4.69;69.00;95917.69;4930886;28;20232;-61
2022/03/17 07:24:36;;;;;;;8.67;7.83;;;;;;;4.75;68.86;95912.09;4928165;29;20228;-61
2022/03/17 07:27:02;;;;;;;6.97;6.20;;;;;;;4.95;68.12;95926.53;4927945;29;20269;-63
2022/03/17 07:29:31;;;;;;;9.53;8.23;;;;;;;5.03;67.44;95926.88;4926747;29;20261;-64
2022/03/17 07:31:56;;;;;;;8.67;7.83;;;;;;;4.83;68.38;95930.69;4923918;28;20214;-61
2022/03/17 07:34:24;;;;;;;7.87;7.07;;;;;;;4.90;68.95;95928.56;4900347;29;20303;-60
2022/03/17 07:36:51;;;;;;;8.17;7.40;;;;;;;4.94;69.37;95933.47;4905688;29;20275;-60
2022/03/17 07:39:16;;;;;;;8.07;7.27;;;;;;;4.89;69.09;95934.69;4906475;29;20288;-59
2022/03/17 07:41:42;;;;;;;8.80;7.30;;;;;;;4.94;68.80;95943.06;4911489;29;20237;-59
2022/03/17 07:44:09;;;;;;;8.63;7.53;;;;;;;4.95;69.50;95937.78;4926821;29;20200;-60
2022/03/17 07:46:34;;;;;;;8.40;7.60;;;;;;;4.93;69.05;95938.81;4914001;29;20209;-59
2022/03/17 07:49:00;;;;;;;9.67;8.70;;;;;;;4.96;69.41;95936.84;4909359;29;20230;-60
2022/03/17 07:51:25;;;;;;;8.93;7.97;;;;;;;5.10;68.36;95938.56;4904564;29;20240;-59
2022/03/17 07:53:51;;;;;;;8.83;7.60;;;;;;;5.13;68.42;95938.38;4917326;29;20249;-61
2022/03/17 07:56:18;;;;;;;10.47;8.67;;;;;;;4.99;68.95;95943.63;4909243;29;20236;-62
2022/03/17 07:58:44;;;;;;;8.30;7.50;;;;;;;4.78;68.17;95938.78;4910301;29;20213;-60
2022/03/17 08:01:10;;;;;;;8.20;7.40;;;;;;;4.79;67.59;95937.06;4911356;29;20241;-59
2022/03/17 08:03:38;;;;;;;9.27;8.03;;;;;;;4.77;67.91;95946.72;4916092;29;20239;-62
2022/03/17 08:06:04;;;;;;;9.20;8.30;;;;;;;4.88;67.53;95938.25;4923904;29;20233;-62
2022/03/17 08:08:29;;;;;;;9.57;8.67;;;;;;;4.62;67.23;95945.88;4908689;29;20257;-60
2022/03/17 08:10:57;;;;;;;9.67;8.27;;;;;;;4.81;68.42;95943.84;4910259;29;20289;-61
2022/03/17 08:13:25;;;;;;;9.13;8.33;;;;;;;4.87;68.06;95942.63;4942442;28;20303;-61
2022/03/17 08:15:51;;;;;;;8.33;7.53;;;;;;;4.84;67.45;95948.88;4914429;29;20230;-61
2022/03/17 08:18:16;;;;;;;8.17;7.37;;;;;;;5.02;67.22;95948.66;4911284;29;20256;-61
2022/03/17 08:20:42;;;;;;;9.97;8.97;;;;;;;5.05;67.57;95951.91;4924008;29;20229;-63
2022/03/17 08:23:08;;;;;;;9.77;7.60;;;;;;;5.00;67.11;95953.13;4924300;29;20210;-61
2022/03/17 08:25:34;;;;;;;9.03;8.23;;;;;;;5.13;67.27;95948.81;4911881;29;20214;-62
2022/03/17 08:28:02;;;;;;;9.17;8.27;;;;;;;5.11;67.49;95945.47;4929449;28;20265;-62
2022/03/17 08:30:29;;;;;;;9.40;8.57;;;;;;;5.18;67.26;95953.75;4963314;28;20271;-61
2022/03/17 08:32:55;;;;;;;10.17;9.07;;;;;;;5.23;66.92;95954.31;4930760;29;20231;-63
2022/03/17 08:35:21;;;;;;;9.20;8.40;;;;;;;5.22;66.27;95955.25;4935395;29;20228;-61
2022/03/17 08:37:46;;;;;;;9.60;8.60;;;;;;;5.22;66.22;95952.63;4938418;28;20213;-61
2022/03/17 08:40:13;;;;;;;11.47;9.23;;;;;;;5.20;67.01;95950.09;4952067;28;20225;-63
2022/03/17 08:42:39;;;;;;;9.87;8.87;;;;;;;5.34;67.23;95940.59;4929821;28;20233;-62
2022/03/17 08:49:18;;;;;;;10.47;9.43;;;;;;;5.42;66.45;95949.59;4930825;29;20244;-60
2022/03/17 08:50:38;;;;;;;10.03;8.87;;;;;;;5.59;66.88;95953.75;4947195;28;20333;-61
2022/03/17 08:53:03;;;;;;;10.27;9.03;;;;;;;5.54;66.92;95948.00;4931245;28;20229;-63
2022/03/17 08:55:29;;;;;;;9.80;8.90;;;;;;;5.52;66.60;95953.28;4930065;29;20221;-60
2022/03/17 08:57:55;;;;;;;10.43;9.33;;;;;;;5.45;66.21;95951.16;4912848;29;20233;-60
2022/03/17 09:00:22;;;;;;;10.60;9.60;;;;;;;5.47;67.03;95967.56;4914926;29;20224;-62
2022/03/17 09:02:48;;;;;;;9.53;8.63;;;;;;;5.53;67.00;95959.34;4914281;29;20228;-62
2022/03/17 09:05:14;;;;;;;10.67;9.67;;;;;;;5.55;66.69;95964.47;4933270;29;20229;-61
2022/03/17 09:07:40;;;;;;;10.07;9.03;;;;;;;5.53;66.75;95969.78;4917309;29;20227;-63
2022/03/17 09:10:05;;;;;;;10.93;9.93;;;;;;;5.59;67.18;95968.56;4921767;29;20234;-62
2022/03/17 09:12:33;;;;;;;10.80;9.80;;;;;;;5.57;66.49;95968.66;4929566;29;20224;-62
2022/03/17 09:14:59;;;;;;;12.20;11.00;;;;;;;5.61;67.29;95977.94;4922177;29;20320;-62
2022/03/17 09:17:25;;;;;;;12.60;11.40;;;;;;;5.62;67.00;95974.41;4908261;29;20246;-60
2022/03/17 09:19:50;;;;;;;11.57;10.57;;;;;;;5.64;66.56;95982.13;4931761;28;20197;-63
2022/03/17 09:22:16;;;;;;;11.20;10.20;;;;;;;5.57;66.39;95984.31;4929772;29;20205;-62
2022/03/17 09:24:41;;;;;;;13.93;12.23;;;;;;;5.71;66.22;95980.81;4929952;28;20236;-61
2022/03/17 09:27:07;;;;;;;11.33;10.27;;;;;;;5.57;66.79;95986.91;4929079;28;20327;-61
2022/03/17 09:29:32;;;;;;;12.90;11.60;;;;;;;5.55;66.84;95993.16;4923713;29;20249;-61
2022/03/17 09:31:58;;;;;;;12.97;11.67;;;;;;;5.53;68.22;95994.13;4916086;28;20209;-61
2022/03/17 09:34:24;;;;;;;13.10;11.70;;;;;;;5.61;68.87;96000.59;4910040;29;20202;-59
2022/03/17 09:36:49;;;;;;;12.37;11.17;;;;;;;5.69;68.92;95999.19;4923553;28;20225;-62
2022/03/17 09:41:59;;;;;;;11.83;10.73;;;;;;;5.84;67.29;96007.81;4943768;28;20399;-61
2022/03/17 09:44:24;;;;;;;12.23;11.00;;;;;;;5.94;67.05;96006.31;4930423;29;20311;-62
2022/03/17 09:46:52;;;;;;;12.50;11.30;;;;;;;5.74;65.11;96004.94;4933668;28;20299;-62
2022/03/17 09:49:19;;;;;;;13.00;11.73;;;;;;;5.47;64.64;96010.13;4950270;28;20212;-61
2022/03/17 09:51:45;;;;;;;13.77;12.37;;;;;;;5.12;66.98;96012.31;4948119;28;20243;-61
2022/03/17 09:54:12;;;;;;;12.27;11.03;;;;;;;5.42;65.94;96016.56;4926258;29;20229;-61
2022/03/17 09:56:38;;;;;;;12.87;11.57;;;;;;;5.37;64.99;96011.63;4932161;29;20225;-62
2022/03/17 09:59:06;;;;;;;13.40;12.10;;;;;;;5.65;65.08;96010.75;4925625;28;20209;-60
2022/03/17 10:01:32;;;;;;;14.20;12.80;;;;;;;5.60;66.31;96009.38;4930811;29;20251;-61
2022/03/17 10:04:00;;;;;;;13.63;12.33;;;;;;;5.59;65.00;96010.31;4924890;28;20236;-63
2022/03/17 10:06:26;;;;;;;12.37;11.20;;;;;;;5.06;65.39;96004.88;4932081;28;20229;-62
2022/03/17 10:08:54;;;;;;;12.27;11.07;;;;;;;4.98;66.07;96013.16;4933020;28;20224;-61
2022/03/17 10:11:30;;;;;;;13.17;11.70;;;;;;;5.08;66.00;96013.47;4930608;28;20316;-62
2022/03/17 10:13:59;;;;;;;13.27;11.87;;;;;;;5.22;65.81;96017.81;4922633;29;20217;-61
2022/03/17 10:16:26;;;;;;;13.33;12.03;;;;;;;5.18;68.10;96018.94;4919944;29;20223;-60
2022/03/17 10:19:06;;;;;;;10.77;9.77;;;;;;;5.13;66.76;96019.19;4945396;28;20244;-61
2022/03/17 10:21:32;;;;;;;10.53;9.50;;;;;;;5.28;66.18;96020.03;4948544;28;20232;-61
2022/03/17 10:24:02;;;;;;;11.10;10.00;;;;;;;5.38;66.75;96015.94;4947099;28;20348;-62
2022/03/17 10:26:38;;;;;;;10.33;9.23;;;;;;;5.46;67.33;96021.50;4942630;28;20236;-62
2022/03/17 10:29:09;;;;;;;10.43;9.43;;;;;;;5.54;66.12;96015.81;4937516;28;20216;-61
2022/03/17 10:32:01;;;;;;;10.83;9.83;;;;;;;5.46;66.71;96021.50;4925212;28;20216;-62
2022/03/17 10:34:33;;;;;;;10.60;9.50;;;;;;;5.55;65.95;96021.88;4927766;29;20237;-61
2022/03/17 10:37:07;;;;;;;14.80;13.20;;;;;;;5.56;66.83;96021.78;4927390;28;20239;-60
2022/03/17 10:39:44;;;;;;;16.57;14.87;;;;;;;5.52;67.54;96025.50;4948019;29;20239;-59
2022/03/17 10:42:12;;;;;;;11.53;10.43;;;;;;;5.61;66.65;96019.69;4926837;29;20229;-60
2022/03/17 10:44:40;;;;;;;11.50;10.37;;;;;;;5.48;65.08;96021.41;4930958;29;20224;-59
2022/03/17 10:47:06;;;;;;;11.77;10.57;;;;;;;5.48;66.54;96031.84;4943222;28;20217;-59
2022/03/17 10:49:31;;;;;;;12.40;11.20;;;;;;;5.46;66.05;96028.50;4930106;29;20223;-59
2022/03/17 10:51:57;;;;;;;11.40;10.20;;;;;;;5.40;65.78;96023.66;4926923;29;20232;-60
2022/03/17 10:54:23;;;;;;;12.50;11.20;;;;;;;5.31;66.21;96030.28;4927446;29;20229;-59
2022/03/17 10:57:05;;;;;;;11.57;10.37;;;;;;;5.41;65.97;96025.34;4927717;29;20225;-59
2022/03/17 10:59:46;;;;;;;12.23;11.13;;;;;;;5.35;66.09;96026.56;4924622;29;20232;-61
2022/03/17 11:02:16;;;;;;;13.83;12.50;;;;;;;5.38;66.80;96034.19;4912784;29;20239;-61
2022/03/17 11:04:47;;;;;;;18.20;16.50;;;;;;;5.49;67.29;96028.31;4921322;29;20276;-60
2022/03/17 11:07:14;;;;;;;16.83;15.30;;;;;;;5.59;66.83;96021.59;4915745;29;20320;-60
2022/03/17 11:09:41;;;;;;;16.33;13.67;;;;;;;5.64;66.52;96029.97;4921439;29;20233;-61
2022/03/17 11:12:08;;;;;;;15.03;13.63;;;;;;;5.55;67.05;96024.47;4922251;29;20256;-62
2022/03/17 11:14:39;;;;;;;15.57;14.07;;;;;;;5.36;67.48;96022.19;4922791;28;20239;-62
2022/03/17 11:17:06;;;;;;;13.23;12.03;;;;;;;5.52;67.66;96022.91;4938207;28;20213;-62
2022/03/17 11:19:33;;;;;;;12.27;11.07;;;;;;;5.48;67.29;96021.41;4921339;29;20211;-62
2022/03/17 11:22:09;;;;;;;11.77;10.57;;;;;;;5.49;67.04;96025.69;4920405;29;20229;-61
2022/03/17 11:24:35;;;;;;;10.40;9.53;;;;;;;5.51;66.66;96021.22;4920031;29;20381;-62
2022/03/17 11:27:12;;;;;;;10.03;9.00;;;;;;;5.47;67.24;96024.94;4934867;28;20329;-61
2022/03/17 11:29:45;;;;;;;11.93;10.43;;;;;;;5.49;67.57;96029.13;4953252;28;20232;-61
2022/03/17 11:32:29;;;;;;;10.00;9.10;;;;;;;5.50;66.96;96025.59;4940683;29;20225;-61
2022/03/17 11:35:15;;;;;;;10.13;9.17;;;;;;;5.64;66.39;96016.91;4938155;28;20193;-61
2022/03/17 11:37:41;;;;;;;8.43;7.63;;;;;;;5.82;65.97;96014.06;4920541;29;20201;-61
2022/03/17 11:40:25;;;;;;;8.93;8.03;;;;;;;5.86;65.64;96016.38;4924251;29;20221;-61
2022/03/17 11:43:07;;;;;;;9.50;8.10;;;;;;;6.01;64.67;96011.13;4924183;29;20229;-62
2022/03/17 11:45:36;;;;;;;8.23;7.43;;;;;;;5.90;65.43;96012.63;4924708;28;20351;-62
2022/03/17 11:48:07;;;;;;;8.20;7.43;;;;;;;5.96;64.97;96007.06;4938734;28;20236;-63
2022/03/17 11:50:42;;;;;;;8.60;7.80;;;;;;;5.74;65.05;96007.53;4938941;28;20295;-62
2022/03/17 11:53:20;;;;;;;8.13;7.03;;;;;;;5.77;65.56;96006.50;4920342;29;20207;-64
2022/03/17 11:55:45;;;;;;;7.27;6.57;;;;;;;5.65;65.26;96002.09;4936518;29;20209;-62